Pickwick Dam, Tennessee
Current Conditions -  °F | °C
As of 9:35 AM on Monday 24 Nov 2014 (Local Time) from KSNH Reporting Station
Overcast Overcast  
Wind Chill: 44°   Ceiling: 2200
Heat Index: 48°   Visibility: 10mi
Dew Point: 41°   Wind: 9mph
Humidity: 76%   Direction: 290°WNW
Pressure: 29.83"   Gusts: NA
Location:  35.05°N, 88.24°W
Report Text: KSNH 241535Z AUTO 29008KT 10SM OVC022 09/05 A2983 RMK
Loading
Personal Weather Stations






























Interactive Weather Map New forecast layout! Learn more

10-Day Weather Forecast

Advertisements
Track Severe Weather on mobile